createdAt,value
2023-02-16T00:05:11.017Z,1019.96
2023-02-16T00:11:34.016Z,1019.96
2023-02-16T00:17:53.997Z,1019.9
2023-02-16T00:24:17.040Z,1019.94
2023-02-16T00:30:36.973Z,1019.94
2023-02-16T00:37:00.021Z,1019.86
2023-02-16T00:43:20.015Z,1019.84
2023-02-16T00:49:43.035Z,1019.86
2023-02-16T00:56:03.050Z,1019.78
2023-02-16T01:02:26.113Z,1019.8
2023-02-16T01:08:46.007Z,1019.82
2023-02-16T01:15:09.051Z,1019.8
2023-02-16T01:21:29.034Z,1019.76
2023-02-16T01:27:52.002Z,1019.7
2023-02-16T01:34:12.065Z,1019.64
2023-02-16T01:40:35.006Z,1019.64
2023-02-16T01:46:55.116Z,1019.64
2023-02-16T01:53:18.059Z,1019.6
2023-02-16T01:59:38.001Z,1019.55
2023-02-16T02:06:02.036Z,1019.53
2023-02-16T02:12:22.063Z,1019.49
2023-02-16T02:18:45.097Z,1019.51
2023-02-16T02:25:05.008Z,1019.47
2023-02-16T02:31:28.180Z,1019.51
2023-02-16T02:37:47.980Z,1019.47
2023-02-16T02:44:11.019Z,1019.45
2023-02-16T02:50:31.016Z,1019.39
2023-02-16T02:56:54.054Z,1019.39
2023-02-16T03:03:14.198Z,1019.41
2023-02-16T03:09:37.020Z,1019.33
2023-02-16T03:15:57.035Z,1019.27
2023-02-16T03:22:20.055Z,1019.19
2023-02-16T03:28:40.025Z,1019.17
2023-02-16T03:35:03.050Z,1019.19
2023-02-16T03:41:23.030Z,1019.19
2023-02-16T03:47:46.081Z,1019.12
2023-02-16T03:54:06.011Z,1019.08
2023-02-16T04:00:29.038Z,1019.06
2023-02-16T04:06:49.050Z,1019.08
2023-02-16T04:23:40.543Z,1019.13
2023-02-16T04:30:00.015Z,1019.13
2023-02-16T04:36:23.009Z,1019.17
2023-02-16T04:42:42.999Z,1019.17
2023-02-16T04:49:05.991Z,1019.15
2023-02-16T04:55:25.980Z,1019.12
2023-02-16T05:01:49.131Z,1019.12
2023-02-16T05:08:08.974Z,1019.1
2023-02-16T05:14:31.975Z,1019.12
2023-02-16T05:20:52.043Z,1019.1
2023-02-16T05:27:15.047Z,1019.12
2023-02-16T05:33:35.080Z,1019.1
2023-02-16T05:39:58.355Z,1019.1
2023-02-16T05:46:18.040Z,1019.13
2023-02-16T05:52:41.001Z,1019.13
2023-02-16T05:59:01.035Z,1019.13
2023-02-16T06:05:24.571Z,1019.13
2023-02-16T06:11:45.987Z,1019.15
2023-02-16T06:18:09.029Z,1019.21
2023-02-16T06:24:29.601Z,1019.21
2023-02-16T06:30:52.032Z,1019.21
2023-02-16T06:37:12.003Z,1019.23
2023-02-16T06:43:35.039Z,1019.23
2023-02-16T06:49:54.978Z,1019.23
2023-02-16T06:56:18.051Z,1019.21
2023-02-16T07:02:38.058Z,1019.21
2023-02-16T07:09:00.993Z,1019.27
2023-02-16T07:15:21.047Z,1019.31
2023-02-16T07:21:44.055Z,1019.29
2023-02-16T07:28:04.068Z,1019.37
2023-02-16T07:34:27.017Z,1019.45
2023-02-16T07:40:46.994Z,1019.45
2023-02-16T07:47:09.986Z,1019.49
2023-02-16T07:53:30.042Z,1019.45
2023-02-16T07:59:53.077Z,1019.47
2023-02-16T08:06:13.236Z,1019.45
2023-02-16T08:12:36.046Z,1019.49
2023-02-16T08:18:56.052Z,1019.47
2023-02-16T08:25:18.981Z,1019.47
2023-02-16T08:31:39.073Z,1019.39
2023-02-16T08:38:02.031Z,1019.33
2023-02-16T08:44:22.074Z,1019.37
2023-02-16T08:50:45.044Z,1019.39
2023-02-16T08:57:05.013Z,1019.39
2023-02-16T09:03:28.086Z,1019.35
2023-02-16T09:09:48.010Z,1019.37
2023-02-16T09:33:29.988Z,1019.43
2023-02-16T09:39:52.984Z,1019.39
2023-02-16T09:46:13.099Z,1019.43
2023-02-16T09:52:36.042Z,1019.45
2023-02-16T09:58:56.021Z,1019.47
2023-02-16T10:05:20.016Z,1019.45
2023-02-16T10:11:40.311Z,1019.47
2023-02-16T10:18:03.108Z,1019.49
2023-02-16T10:24:23.012Z,1019.53
2023-02-16T10:30:46.195Z,1019.49
2023-02-16T10:37:05.998Z,1019.49
2023-02-16T10:43:28.997Z,1019.47
2023-02-16T10:49:49.039Z,1019.47
2023-02-16T10:56:11.994Z,1019.43
2023-02-16T11:02:32.061Z,1019.35
2023-02-16T11:08:55.053Z,1019.31
2023-02-16T11:15:15.004Z,1019.21
2023-02-16T11:21:38.001Z,1019.19
2023-02-16T11:27:58.018Z,1019.1
2023-02-16T11:34:21.028Z,1019.04
2023-02-16T11:40:41.001Z,1018.92
2023-02-16T11:47:04.041Z,1018.86
2023-02-16T11:53:24.052Z,1018.76
2023-02-16T11:59:47.112Z,1018.73
2023-02-16T12:06:07.039Z,1018.63
2023-02-16T12:12:30.001Z,1018.53
2023-02-16T12:18:50.020Z,1018.41
2023-02-16T12:25:13.052Z,1018.23
2023-02-16T12:31:33.305Z,1018.19
2023-02-16T12:37:56.989Z,1018.15
2023-02-16T12:44:17.017Z,1018.07
2023-02-16T12:50:40.020Z,1018.05
2023-02-16T12:56:59.985Z,1018.11
2023-02-16T13:03:23.285Z,1018.07
2023-02-16T13:09:43.022Z,1018.01
2023-02-16T13:16:06.327Z,1017.97
2023-02-16T13:22:26.011Z,1017.91
2023-02-16T13:28:49.116Z,1017.85
2023-02-16T13:35:08.997Z,1017.74
2023-02-16T13:41:32.058Z,1017.62
2023-02-16T13:47:51.996Z,1017.64
2023-02-16T13:54:15.016Z,1017.62
2023-02-16T14:00:35.018Z,1017.66
2023-02-16T14:06:57.991Z,1017.54
2023-02-16T14:13:17.989Z,1017.4
2023-02-16T14:19:41.022Z,1017.34
2023-02-16T14:26:01.030Z,1017.29
2023-02-16T14:32:23.986Z,1017.15
2023-02-16T14:38:44.013Z,1017.03
2023-02-16T15:01:33.033Z,1016.9
2023-02-16T15:07:55.990Z,1016.9
2023-02-16T15:14:15.997Z,1016.86
2023-02-16T15:20:39.010Z,1016.84
2023-02-16T15:26:59.028Z,1016.82
2023-02-16T15:33:21.994Z,1016.82
2023-02-16T15:39:52.016Z,1016.78
2023-02-16T15:46:05.281Z,1016.72
2023-02-16T15:52:25.017Z,1016.66
2023-02-16T15:58:48.020Z,1016.58
2023-02-16T16:05:08.071Z,1016.6
2023-02-16T16:11:31.012Z,1016.62
2023-02-16T16:17:52.217Z,1016.64
2023-02-16T16:24:15.282Z,1016.66
2023-02-16T16:30:35.028Z,1016.74
2023-02-16T16:36:58.009Z,1016.76
2023-02-16T16:43:18.095Z,1016.76
2023-02-16T16:49:41.142Z,1016.76
2023-02-16T16:56:02.210Z,1016.82
2023-02-16T17:02:23.993Z,1016.82
2023-02-16T17:08:43.985Z,1016.86
2023-02-16T17:15:07.026Z,1016.88
2023-02-16T17:21:27.001Z,1016.84
2023-02-16T17:27:50.010Z,1016.84
2023-02-16T17:34:10.006Z,1016.82
2023-02-16T17:40:33.170Z,1016.84
2023-02-16T17:46:52.989Z,1016.8
2023-02-16T17:53:15.991Z,1016.8
2023-02-16T17:59:36.029Z,1016.78
2023-02-16T18:05:58.988Z,1016.78
2023-02-16T18:12:19.015Z,1016.78
2023-02-16T18:18:42.009Z,1016.84
2023-02-16T18:25:01.987Z,1016.88
2023-02-16T18:31:25.072Z,1016.92
2023-02-16T18:37:44.997Z,1016.92
2023-02-16T18:44:07.998Z,1016.94
2023-02-16T18:50:28.321Z,1016.94
2023-02-16T18:56:51.007Z,1016.95
2023-02-16T19:03:11.025Z,1016.97
2023-02-16T19:09:34.037Z,1016.95
2023-02-16T19:15:54.060Z,1016.97
2023-02-16T19:22:17.057Z,1016.97
2023-02-16T19:28:37.019Z,1016.99
2023-02-16T19:35:00.003Z,1016.95
2023-02-16T19:41:20.006Z,1016.94
2023-02-16T19:47:43.040Z,1016.95
2023-02-16T19:54:02.993Z,1016.9
2023-02-16T20:16:51.028Z,1016.92
2023-02-16T20:23:13.970Z,1016.9
2023-02-16T20:29:34.011Z,1016.9
2023-02-16T20:35:57.003Z,1016.88
2023-02-16T20:42:17.005Z,1016.84
2023-02-16T20:48:39.981Z,1016.78
2023-02-16T20:55:00.072Z,1016.72
2023-02-16T21:01:22.985Z,1016.66
2023-02-16T21:07:43.026Z,1016.64
2023-02-16T21:14:06.038Z,1016.64
2023-02-16T21:20:25.990Z,1016.66
2023-02-16T21:26:48.982Z,1016.58
2023-02-16T21:33:09.003Z,1016.5
2023-02-16T21:39:31.971Z,1016.48
2023-02-16T21:45:52.065Z,1016.48
2023-02-16T21:52:15.019Z,1016.43
2023-02-16T21:58:34.991Z,1016.37
2023-02-16T22:04:58.003Z,1016.33
2023-02-16T22:11:18.007Z,1016.27
2023-02-16T22:17:40.984Z,1016.27
2023-02-16T22:24:01.233Z,1016.29
2023-02-16T22:30:24.076Z,1016.33
2023-02-16T22:36:43.986Z,1016.27
2023-02-16T22:43:06.977Z,1016.19
2023-02-16T22:49:27.057Z,1016.17
2023-02-16T22:55:49.985Z,1016.13
2023-02-16T23:20:04.030Z,1016.27
2023-02-16T23:26:24.046Z,1016.27
2023-02-16T23:32:47.036Z,1016.25
2023-02-16T23:39:07.015Z,1016.19
2023-02-16T23:45:29.982Z,1016.17
2023-02-16T23:51:49.990Z,1016.23
2023-02-16T23:58:13.015Z,1016.21
